sensor_id;sensor_type;location;lat;lon;timestamp;P1;durP1;ratioP1;P2;durP2;ratioP2
22794;SDS011;11564;50.920;11.612;2022-09-21T00:00:35;3.73;;;2.30;;
22794;SDS011;11564;50.920;11.612;2022-09-21T00:03:01;4.83;;;2.80;;
22794;SDS011;11564;50.920;11.612;2022-09-21T00:05:27;4.90;;;2.33;;
22794;SDS011;11564;50.920;11.612;2022-09-21T00:07:53;2.47;;;2.30;;
22794;SDS011;11564;50.920;11.612;2022-09-21T00:10:19;2.70;;;2.50;;
22794;SDS011;11564;50.920;11.612;2022-09-21T00:12:46;5.17;;;3.60;;
22794;SDS011;11564;50.920;11.612;2022-09-21T00:15:13;3.27;;;2.83;;
22794;SDS011;11564;50.920;11.612;2022-09-21T00:17:41;6.20;;;3.10;;
22794;SDS011;11564;50.920;11.612;2022-09-21T00:20:08;12.40;;;3.27;;
22794;SDS011;11564;50.920;11.612;2022-09-21T00:22:34;24.17;;;3.90;;
22794;SDS011;11564;50.920;11.612;2022-09-21T00:25:00;3.00;;;2.80;;
22794;SDS011;11564;50.920;11.612;2022-09-21T00:27:29;13.20;;;3.07;;
22794;SDS011;11564;50.920;11.612;2022-09-21T00:29:55;19.20;;;2.50;;
22794;SDS011;11564;50.920;11.612;2022-09-21T00:32:21;12.20;;;3.10;;
22794;SDS011;11564;50.920;11.612;2022-09-21T00:34:49;14.43;;;2.20;;
22794;SDS011;11564;50.920;11.612;2022-09-21T00:37:15;14.73;;;3.03;;
22794;SDS011;11564;50.920;11.612;2022-09-21T00:39:42;18.57;;;2.63;;
22794;SDS011;11564;50.920;11.612;2022-09-21T00:42:17;4.17;;;2.23;;
22794;SDS011;11564;50.920;11.612;2022-09-21T00:44:51;26.97;;;2.60;;
22794;SDS011;11564;50.920;11.612;2022-09-21T00:47:21;24.33;;;3.30;;
22794;SDS011;11564;50.920;11.612;2022-09-21T00:49:52;6.37;;;2.20;;
22794;SDS011;11564;50.920;11.612;2022-09-21T00:52:21;7.13;;;3.43;;
22794;SDS011;11564;50.920;11.612;2022-09-21T00:54:52;44.77;;;3.80;;
22794;SDS011;11564;50.920;11.612;2022-09-21T00:57:22;19.00;;;2.87;;
22794;SDS011;11564;50.920;11.612;2022-09-21T00:59:51;31.23;;;3.87;;
22794;SDS011;11564;50.920;11.612;2022-09-21T01:02:19;26.17;;;3.63;;
22794;SDS011;11564;50.920;11.612;2022-09-21T01:04:46;103.60;;;6.30;;
22794;SDS011;11564;50.920;11.612;2022-09-21T01:07:16;98.63;;;5.80;;
22794;SDS011;11564;50.920;11.612;2022-09-21T01:09:46;51.57;;;3.80;;
22794;SDS011;11564;50.920;11.612;2022-09-21T01:15:25;13.97;;;2.30;;
22794;SDS011;11564;50.920;11.612;2022-09-21T01:21:47;66.73;;;5.53;;
22794;SDS011;11564;50.920;11.612;2022-09-21T01:32:15;66.33;;;4.43;;
22794;SDS011;11564;50.920;11.612;2022-09-21T01:34:49;46.60;;;3.20;;
22794;SDS011;11564;50.920;11.612;2022-09-21T01:37:25;42.23;;;3.57;;
22794;SDS011;11564;50.920;11.612;2022-09-21T01:40:06;72.47;;;4.70;;
22794;SDS011;11564;50.920;11.612;2022-09-21T01:42:36;20.23;;;2.80;;
22794;SDS011;11564;50.920;11.612;2022-09-21T01:45:04;6.10;;;2.60;;
22794;SDS011;11564;50.920;11.612;2022-09-21T01:47:33;68.77;;;4.00;;
22794;SDS011;11564;50.920;11.612;2022-09-21T01:50:02;64.93;;;4.10;;
22794;SDS011;11564;50.920;11.612;2022-09-21T01:52:36;31.63;;;3.30;;
22794;SDS011;11564;50.920;11.612;2022-09-21T01:55:13;18.60;;;2.40;;
22794;SDS011;11564;50.920;11.612;2022-09-21T01:57:55;21.23;;;3.03;;
22794;SDS011;11564;50.920;11.612;2022-09-21T02:00:22;50.23;;;3.73;;
22794;SDS011;11564;50.920;11.612;2022-09-21T02:05:37;9.30;;;2.10;;
22794;SDS011;11564;50.920;11.612;2022-09-21T02:08:04;45.63;;;2.63;;
22794;SDS011;11564;50.920;11.612;2022-09-21T02:10:33;10.17;;;2.13;;
22794;SDS011;11564;50.920;11.612;2022-09-21T02:13:03;12.03;;;1.97;;
22794;SDS011;11564;50.920;11.612;2022-09-21T02:15:45;40.70;;;2.70;;
22794;SDS011;11564;50.920;11.612;2022-09-21T02:24:07;18.93;;;2.53;;
22794;SDS011;11564;50.920;11.612;2022-09-21T02:26:48;8.03;;;2.03;;
22794;SDS011;11564;50.920;11.612;2022-09-21T02:29:24;12.23;;;2.30;;
22794;SDS011;11564;50.920;11.612;2022-09-21T02:32:08;16.13;;;2.40;;
22794;SDS011;11564;50.920;11.612;2022-09-21T02:37:23;35.40;;;2.80;;
22794;SDS011;11564;50.920;11.612;2022-09-21T02:39:58;20.47;;;3.30;;
22794;SDS011;11564;50.920;11.612;2022-09-21T02:42:33;88.60;;;4.47;;
22794;SDS011;11564;50.920;11.612;2022-09-21T02:45:10;111.87;;;5.70;;
22794;SDS011;11564;50.920;11.612;2022-09-21T02:47:49;102.80;;;7.80;;
22794;SDS011;11564;50.920;11.612;2022-09-21T02:50:45;23.93;;;2.90;;
22794;SDS011;11564;50.920;11.612;2022-09-21T02:53:15;18.47;;;2.57;;
22794;SDS011;11564;50.920;11.612;2022-09-21T02:55:47;33.97;;;3.23;;
22794;SDS011;11564;50.920;11.612;2022-09-21T02:58:15;25.40;;;2.30;;
22794;SDS011;11564;50.920;11.612;2022-09-21T03:00:43;12.50;;;2.00;;
22794;SDS011;11564;50.920;11.612;2022-09-21T03:03:20;25.53;;;2.27;;
22794;SDS011;11564;50.920;11.612;2022-09-21T03:05:48;25.23;;;2.13;;
22794;SDS011;11564;50.920;11.612;2022-09-21T03:08:16;46.50;;;3.17;;
22794;SDS011;11564;50.920;11.612;2022-09-21T03:10:42;10.77;;;2.00;;
22794;SDS011;11564;50.920;11.612;2022-09-21T03:13:08;14.17;;;2.13;;
22794;SDS011;11564;50.920;11.612;2022-09-21T03:15:37;9.00;;;1.50;;
22794;SDS011;11564;50.920;11.612;2022-09-21T03:18:04;4.23;;;1.80;;
22794;SDS011;11564;50.920;11.612;2022-09-21T03:20:33;2.10;;;1.67;;
22794;SDS011;11564;50.920;11.612;2022-09-21T03:23:00;18.97;;;2.23;;
22794;SDS011;11564;50.920;11.612;2022-09-21T03:25:26;1.50;;;1.40;;
22794;SDS011;11564;50.920;11.612;2022-09-21T03:27:52;14.10;;;1.70;;
22794;SDS011;11564;50.920;11.612;2022-09-21T03:30:19;1.67;;;1.57;;
22794;SDS011;11564;50.920;11.612;2022-09-21T03:32:47;11.60;;;2.27;;
22794;SDS011;11564;50.920;11.612;2022-09-21T03:35:13;39.17;;;2.80;;
22794;SDS011;11564;50.920;11.612;2022-09-21T03:37:40;49.27;;;3.60;;
22794;SDS011;11564;50.920;11.612;2022-09-21T03:40:06;44.70;;;2.93;;
22794;SDS011;11564;50.920;11.612;2022-09-21T03:42:32;32.20;;;3.00;;
22794;SDS011;11564;50.920;11.612;2022-09-21T03:44:58;55.43;;;3.10;;
22794;SDS011;11564;50.920;11.612;2022-09-21T03:47:24;111.93;;;5.20;;
22794;SDS011;11564;50.920;11.612;2022-09-21T03:49:49;55.83;;;4.50;;
22794;SDS011;11564;50.920;11.612;2022-09-21T03:52:15;93.93;;;4.10;;
22794;SDS011;11564;50.920;11.612;2022-09-21T03:54:40;56.43;;;2.87;;
22794;SDS011;11564;50.920;11.612;2022-09-21T03:57:06;14.87;;;2.80;;
22794;SDS011;11564;50.920;11.612;2022-09-21T03:59:32;134.10;;;5.67;;
22794;SDS011;11564;50.920;11.612;2022-09-21T04:01:59;37.37;;;2.77;;
22794;SDS011;11564;50.920;11.612;2022-09-21T04:04:24;18.90;;;2.13;;
22794;SDS011;11564;50.920;11.612;2022-09-21T04:06:50;23.20;;;2.10;;
22794;SDS011;11564;50.920;11.612;2022-09-21T04:09:16;34.00;;;2.80;;
22794;SDS011;11564;50.920;11.612;2022-09-21T04:11:43;39.20;;;2.73;;
22794;SDS011;11564;50.920;11.612;2022-09-21T04:14:10;28.73;;;2.33;;
22794;SDS011;11564;50.920;11.612;2022-09-21T04:16:36;7.97;;;1.80;;
22794;SDS011;11564;50.920;11.612;2022-09-21T04:19:01;6.83;;;1.70;;
22794;SDS011;11564;50.920;11.612;2022-09-21T04:21:27;4.70;;;1.90;;
22794;SDS011;11564;50.920;11.612;2022-09-21T04:23:53;30.60;;;2.60;;
22794;SDS011;11564;50.920;11.612;2022-09-21T04:26:24;7.10;;;2.70;;
22794;SDS011;11564;50.920;11.612;2022-09-21T04:28:54;31.13;;;2.60;;
22794;SDS011;11564;50.920;11.612;2022-09-21T04:31:21;35.53;;;2.80;;
22794;SDS011;11564;50.920;11.612;2022-09-21T04:33:48;49.50;;;3.43;;
22794;SDS011;11564;50.920;11.612;2022-09-21T04:36:14;39.47;;;3.03;;
22794;SDS011;11564;50.920;11.612;2022-09-21T04:38:40;31.70;;;2.23;;
22794;SDS011;11564;50.920;11.612;2022-09-21T04:41:06;18.07;;;1.80;;
22794;SDS011;11564;50.920;11.612;2022-09-21T04:43:31;13.70;;;2.00;;
22794;SDS011;11564;50.920;11.612;2022-09-21T04:45:57;4.07;;;1.93;;
22794;SDS011;11564;50.920;11.612;2022-09-21T04:48:23;7.83;;;1.90;;
22794;SDS011;11564;50.920;11.612;2022-09-21T04:50:49;18.30;;;1.80;;
22794;SDS011;11564;50.920;11.612;2022-09-21T04:53:15;29.70;;;2.80;;
22794;SDS011;11564;50.920;11.612;2022-09-21T04:55:40;43.77;;;3.83;;
22794;SDS011;11564;50.920;11.612;2022-09-21T04:58:06;64.20;;;3.20;;
22794;SDS011;11564;50.920;11.612;2022-09-21T05:00:31;37.80;;;2.90;;
22794;SDS011;11564;50.920;11.612;2022-09-21T05:02:57;48.00;;;3.27;;
22794;SDS011;11564;50.920;11.612;2022-09-21T05:05:23;26.93;;;3.70;;
22794;SDS011;11564;50.920;11.612;2022-09-21T05:07:48;7.93;;;2.60;;
22794;SDS011;11564;50.920;11.612;2022-09-21T05:10:14;23.40;;;4.37;;
22794;SDS011;11564;50.920;11.612;2022-09-21T05:12:40;13.70;;;2.73;;
22794;SDS011;11564;50.920;11.612;2022-09-21T05:15:07;32.90;;;3.70;;
22794;SDS011;11564;50.920;11.612;2022-09-21T05:17:35;67.23;;;4.63;;
22794;SDS011;11564;50.920;11.612;2022-09-21T05:20:02;16.47;;;2.83;;
22794;SDS011;11564;50.920;11.612;2022-09-21T05:22:27;5.60;;;2.57;;
22794;SDS011;11564;50.920;11.612;2022-09-21T05:24:53;15.50;;;2.57;;
22794;SDS011;11564;50.920;11.612;2022-09-21T05:27:19;22.03;;;3.40;;
22794;SDS011;11564;50.920;11.612;2022-09-21T05:29:45;14.93;;;2.20;;
22794;SDS011;11564;50.920;11.612;2022-09-21T05:37:43;10.40;;;2.83;;
22794;SDS011;11564;50.920;11.612;2022-09-21T05:40:23;33.33;;;3.27;;
22794;SDS011;11564;50.920;11.612;2022-09-21T05:42:49;76.57;;;4.70;;
22794;SDS011;11564;50.920;11.612;2022-09-21T05:45:15;58.67;;;3.57;;
22794;SDS011;11564;50.920;11.612;2022-09-21T05:47:53;17.47;;;2.77;;
22794;SDS011;11564;50.920;11.612;2022-09-21T05:51:25;15.53;;;1.80;;
22794;SDS011;11564;50.920;11.612;2022-09-21T05:54:08;2.23;;;1.50;;
22794;SDS011;11564;50.920;11.612;2022-09-21T05:57:13;14.07;;;1.77;;
22794;SDS011;11564;50.920;11.612;2022-09-21T06:05:22;1.30;;;1.30;;
22794;SDS011;11564;50.920;11.612;2022-09-21T06:07:48;4.03;;;1.83;;
22794;SDS011;11564;50.920;11.612;2022-09-21T06:10:14;2.50;;;2.40;;
22794;SDS011;11564;50.920;11.612;2022-09-21T06:12:40;4.57;;;2.40;;
22794;SDS011;11564;50.920;11.612;2022-09-21T06:15:06;1.80;;;1.70;;
22794;SDS011;11564;50.920;11.612;2022-09-21T06:17:36;2.27;;;1.60;;
22794;SDS011;11564;50.920;11.612;2022-09-21T06:20:01;4.43;;;1.53;;
22794;SDS011;11564;50.920;11.612;2022-09-21T06:22:27;30.97;;;2.37;;
22794;SDS011;11564;50.920;11.612;2022-09-21T06:24:53;11.27;;;2.20;;
22794;SDS011;11564;50.920;11.612;2022-09-21T06:27:18;287.37;;;11.80;;
22794;SDS011;11564;50.920;11.612;2022-09-21T06:29:44;38.43;;;3.43;;
22794;SDS011;11564;50.920;11.612;2022-09-21T06:32:10;11.50;;;2.37;;
22794;SDS011;11564;50.920;11.612;2022-09-21T06:34:36;12.23;;;2.27;;
22794;SDS011;11564;50.920;11.612;2022-09-21T06:37:02;43.90;;;2.70;;
22794;SDS011;11564;50.920;11.612;2022-09-21T06:39:28;7.43;;;1.90;;
22794;SDS011;11564;50.920;11.612;2022-09-21T06:41:53;4.97;;;1.80;;
22794;SDS011;11564;50.920;11.612;2022-09-21T06:44:20;4.77;;;1.70;;
22794;SDS011;11564;50.920;11.612;2022-09-21T06:46:45;4.60;;;1.37;;
22794;SDS011;11564;50.920;11.612;2022-09-21T06:49:11;1.77;;;1.67;;
22794;SDS011;11564;50.920;11.612;2022-09-21T06:51:36;1.60;;;1.50;;
22794;SDS011;11564;50.920;11.612;2022-09-21T06:54:02;87.60;;;4.43;;
22794;SDS011;11564;50.920;11.612;2022-09-21T06:56:28;6.63;;;2.00;;
22794;SDS011;11564;50.920;11.612;2022-09-21T06:58:54;8.03;;;2.83;;
22794;SDS011;11564;50.920;11.612;2022-09-21T07:01:19;47.50;;;4.63;;
22794;SDS011;11564;50.920;11.612;2022-09-21T07:03:47;52.50;;;3.67;;
22794;SDS011;11564;50.920;11.612;2022-09-21T07:06:15;43.73;;;3.20;;
22794;SDS011;11564;50.920;11.612;2022-09-21T07:08:41;7.60;;;2.30;;
22794;SDS011;11564;50.920;11.612;2022-09-21T07:11:08;3.37;;;2.60;;
22794;SDS011;11564;50.920;11.612;2022-09-21T07:13:37;9.23;;;2.53;;
22794;SDS011;11564;50.920;11.612;2022-09-21T07:16:05;111.47;;;5.50;;
22794;SDS011;11564;50.920;11.612;2022-09-21T07:18:38;9.40;;;3.03;;
22794;SDS011;11564;50.920;11.612;2022-09-21T07:21:05;145.53;;;8.80;;
22794;SDS011;11564;50.920;11.612;2022-09-21T07:23:32;11.83;;;3.53;;
22794;SDS011;11564;50.920;11.612;2022-09-21T07:26:09;87.13;;;5.63;;
22794;SDS011;11564;50.920;11.612;2022-09-21T07:28:36;10.17;;;3.70;;
22794;SDS011;11564;50.920;11.612;2022-09-21T07:31:06;92.07;;;7.20;;
22794;SDS011;11564;50.920;11.612;2022-09-21T07:33:33;83.07;;;6.23;;
22794;SDS011;11564;50.920;11.612;2022-09-21T07:35:59;17.03;;;3.90;;
22794;SDS011;11564;50.920;11.612;2022-09-21T07:38:25;140.07;;;7.73;;
22794;SDS011;11564;50.920;11.612;2022-09-21T07:40:51;90.07;;;6.30;;
22794;SDS011;11564;50.920;11.612;2022-09-21T07:43:17;127.80;;;8.23;;
22794;SDS011;11564;50.920;11.612;2022-09-21T07:45:42;103.57;;;6.47;;
22794;SDS011;11564;50.920;11.612;2022-09-21T07:48:15;36.13;;;4.40;;
22794;SDS011;11564;50.920;11.612;2022-09-21T07:50:41;86.13;;;6.00;;
22794;SDS011;11564;50.920;11.612;2022-09-21T07:53:06;61.57;;;4.87;;
22794;SDS011;11564;50.920;11.612;2022-09-21T07:55:33;32.50;;;4.27;;
22794;SDS011;11564;50.920;11.612;2022-09-21T07:57:58;56.97;;;4.80;;
22794;SDS011;11564;50.920;11.612;2022-09-21T08:01:03;49.67;;;3.40;;
22794;SDS011;11564;50.920;11.612;2022-09-21T08:03:30;40.63;;;4.60;;
22794;SDS011;11564;50.920;11.612;2022-09-21T08:05:57;6.43;;;3.40;;
22794;SDS011;11564;50.920;11.612;2022-09-21T08:08:23;3.10;;;2.87;;
22794;SDS011;11564;50.920;11.612;2022-09-21T08:10:49;13.17;;;3.70;;
22794;SDS011;11564;50.920;11.612;2022-09-21T08:13:17;34.90;;;4.47;;
22794;SDS011;11564;50.920;11.612;2022-09-21T08:15:42;20.53;;;4.33;;
22794;SDS011;11564;50.920;11.612;2022-09-21T08:18:08;19.83;;;4.30;;
22794;SDS011;11564;50.920;11.612;2022-09-21T08:20:34;6.47;;;4.60;;
22794;SDS011;11564;50.920;11.612;2022-09-21T08:23:00;4.90;;;4.40;;
22794;SDS011;11564;50.920;11.612;2022-09-21T08:25:26;7.33;;;4.50;;
22794;SDS011;11564;50.920;11.612;2022-09-21T08:27:55;17.83;;;5.03;;
22794;SDS011;11564;50.920;11.612;2022-09-21T08:30:22;5.00;;;4.50;;
22794;SDS011;11564;50.920;11.612;2022-09-21T08:32:47;9.63;;;4.73;;
22794;SDS011;11564;50.920;11.612;2022-09-21T08:35:13;10.40;;;4.60;;
22794;SDS011;11564;50.920;11.612;2022-09-21T08:37:39;14.77;;;6.60;;
22794;SDS011;11564;50.920;11.612;2022-09-21T08:40:04;32.43;;;5.70;;
22794;SDS011;11564;50.920;11.612;2022-09-21T08:42:38;7.43;;;4.20;;
22794;SDS011;11564;50.920;11.612;2022-09-21T08:45:20;4.20;;;3.90;;
22794;SDS011;11564;50.920;11.612;2022-09-21T08:47:55;4.87;;;4.43;;
22794;SDS011;11564;50.920;11.612;2022-09-21T08:52:53;5.07;;;4.67;;
22794;SDS011;11564;50.920;11.612;2022-09-21T08:55:24;5.33;;;4.83;;
22794;SDS011;11564;50.920;11.612;2022-09-21T08:57:50;24.87;;;5.63;;
22794;SDS011;11564;50.920;11.612;2022-09-21T09:00:17;11.93;;;5.50;;
22794;SDS011;11564;50.920;11.612;2022-09-21T09:02:52;7.20;;;6.60;;
22794;SDS011;11564;50.920;11.612;2022-09-21T09:21:18;6.80;;;6.10;;
22794;SDS011;11564;50.920;11.612;2022-09-21T09:24:13;5.20;;;4.17;;
22794;SDS011;11564;50.920;11.612;2022-09-21T09:26:52;4.03;;;3.63;;
22794;SDS011;11564;50.920;11.612;2022-09-21T09:31:55;4.20;;;3.30;;
22794;SDS011;11564;50.920;11.612;2022-09-21T09:34:44;6.40;;;3.70;;
22794;SDS011;11564;50.920;11.612;2022-09-21T09:37:23;7.87;;;3.23;;
22794;SDS011;11564;50.920;11.612;2022-09-21T09:39:55;6.80;;;3.50;;
22794;SDS011;11564;50.920;11.612;2022-09-21T09:42:41;6.80;;;4.97;;
22794;SDS011;11564;50.920;11.612;2022-09-21T09:45:36;3.70;;;3.40;;
22794;SDS011;11564;50.920;11.612;2022-09-21T09:48:58;3.67;;;3.10;;
22794;SDS011;11564;50.920;11.612;2022-09-21T09:51:10;5.10;;;2.83;;
22794;SDS011;11564;50.920;11.612;2022-09-21T09:53:36;3.80;;;2.30;;
22794;SDS011;11564;50.920;11.612;2022-09-21T09:56:02;3.70;;;2.00;;
22794;SDS011;11564;50.920;11.612;2022-09-21T10:01:02;7.33;;;1.73;;
22794;SDS011;11564;50.920;11.612;2022-09-21T10:03:28;4.77;;;1.70;;
22794;SDS011;11564;50.920;11.612;2022-09-21T10:05:54;2.20;;;1.07;;
22794;SDS011;11564;50.920;11.612;2022-09-21T10:08:31;4.03;;;1.70;;
22794;SDS011;11564;50.920;11.612;2022-09-21T10:11:10;8.47;;;1.97;;
22794;SDS011;11564;50.920;11.612;2022-09-21T10:13:41;9.43;;;1.67;;
22794;SDS011;11564;50.920;11.612;2022-09-21T10:16:19;7.13;;;1.80;;
22794;SDS011;11564;50.920;11.612;2022-09-21T10:18:48;2.97;;;1.87;;
22794;SDS011;11564;50.920;11.612;2022-09-21T10:21:25;11.37;;;4.63;;
22794;SDS011;11564;50.920;11.612;2022-09-21T10:23:58;6.23;;;2.00;;
22794;SDS011;11564;50.920;11.612;2022-09-21T10:27:10;3.13;;;1.30;;
22794;SDS011;11564;50.920;11.612;2022-09-21T10:29:39;3.77;;;1.43;;
22794;SDS011;11564;50.920;11.612;2022-09-21T10:34:40;8.17;;;1.87;;
22794;SDS011;11564;50.920;11.612;2022-09-21T10:39:55;4.87;;;2.03;;
22794;SDS011;11564;50.920;11.612;2022-09-21T10:42:23;3.40;;;1.10;;
22794;SDS011;11564;50.920;11.612;2022-09-21T10:44:50;2.70;;;0.97;;
22794;SDS011;11564;50.920;11.612;2022-09-21T10:47:40;6.27;;;1.87;;
22794;SDS011;11564;50.920;11.612;2022-09-21T10:50:27;5.90;;;1.93;;
22794;SDS011;11564;50.920;11.612;2022-09-21T10:55:50;3.67;;;1.30;;
22794;SDS011;11564;50.920;11.612;2022-09-21T10:58:26;6.53;;;1.37;;
22794;SDS011;11564;50.920;11.612;2022-09-21T11:00:52;2.80;;;0.97;;
22794;SDS011;11564;50.920;11.612;2022-09-21T11:06:16;1.53;;;1.20;;
22794;SDS011;11564;50.920;11.612;2022-09-21T11:09:04;2.53;;;1.17;;
22794;SDS011;11564;50.920;11.612;2022-09-21T11:17:08;3.50;;;1.60;;
22794;SDS011;11564;50.920;11.612;2022-09-21T11:19:50;3.83;;;1.30;;
22794;SDS011;11564;50.920;11.612;2022-09-21T11:28:38;2.20;;;1.30;;
22794;SDS011;11564;50.920;11.612;2022-09-21T11:31:33;4.07;;;0.90;;
22794;SDS011;11564;50.920;11.612;2022-09-21T11:36:41;5.40;;;1.40;;
22794;SDS011;11564;50.920;11.612;2022-09-21T11:39:26;1.70;;;0.90;;
22794;SDS011;11564;50.920;11.612;2022-09-21T11:45:21;9.37;;;1.07;;
22794;SDS011;11564;50.920;11.612;2022-09-21T11:56:30;2.40;;;1.03;;
22794;SDS011;11564;50.920;11.612;2022-09-21T12:01:43;2.83;;;0.90;;
22794;SDS011;11564;50.920;11.612;2022-09-21T12:07:27;26.17;;;1.60;;
22794;SDS011;11564;50.920;11.612;2022-09-21T12:10:36;4.50;;;1.07;;
22794;SDS011;11564;50.920;11.612;2022-09-21T12:13:30;1.40;;;0.97;;
22794;SDS011;11564;50.920;11.612;2022-09-21T12:21:49;2.40;;;0.87;;
22794;SDS011;11564;50.920;11.612;2022-09-21T12:24:24;4.33;;;1.10;;
22794;SDS011;11564;50.920;11.612;2022-09-21T12:26:55;5.60;;;1.00;;
22794;SDS011;11564;50.920;11.612;2022-09-21T12:29:26;2.80;;;0.80;;
22794;SDS011;11564;50.920;11.612;2022-09-21T12:32:15;1.63;;;0.60;;
22794;SDS011;11564;50.920;11.612;2022-09-21T12:34:47;1.70;;;0.93;;
22794;SDS011;11564;50.920;11.612;2022-09-21T12:40:17;1.80;;;0.80;;
22794;SDS011;11564;50.920;11.612;2022-09-21T12:45:40;2.07;;;0.80;;
22794;SDS011;11564;50.920;11.612;2022-09-21T12:48:23;2.30;;;0.80;;
22794;SDS011;11564;50.920;11.612;2022-09-21T12:53:31;3.13;;;0.80;;
22794;SDS011;11564;50.920;11.612;2022-09-21T12:56:10;3.10;;;0.93;;
22794;SDS011;11564;50.920;11.612;2022-09-21T12:58:49;1.47;;;0.50;;
22794;SDS011;11564;50.920;11.612;2022-09-21T13:01:42;1.67;;;0.80;;
22794;SDS011;11564;50.920;11.612;2022-09-21T13:09:54;5.30;;;0.70;;
22794;SDS011;11564;50.920;11.612;2022-09-21T13:12:22;0.80;;;0.50;;
22794;SDS011;11564;50.920;11.612;2022-09-21T13:14:58;1.57;;;0.47;;
22794;SDS011;11564;50.920;11.612;2022-09-21T13:17:28;0.83;;;0.40;;
22794;SDS011;11564;50.920;11.612;2022-09-21T13:20:02;1.83;;;0.70;;
22794;SDS011;11564;50.920;11.612;2022-09-21T13:22:32;1.70;;;0.60;;
22794;SDS011;11564;50.920;11.612;2022-09-21T13:41:19;6.30;;;1.25;;
22794;SDS011;11564;50.920;11.612;2022-09-21T13:49:18;4.93;;;1.47;;
22794;SDS011;11564;50.920;11.612;2022-09-21T13:57:28;2.97;;;1.20;;
22794;SDS011;11564;50.920;11.612;2022-09-21T14:02:42;5.20;;;1.27;;
22794;SDS011;11564;50.920;11.612;2022-09-21T14:13:35;2.13;;;0.90;;
22794;SDS011;11564;50.920;11.612;2022-09-21T14:18:58;1.37;;;0.80;;
22794;SDS011;11564;50.920;11.612;2022-09-21T14:21:29;2.70;;;1.10;;
22794;SDS011;11564;50.920;11.612;2022-09-21T14:29:11;5.50;;;1.00;;
22794;SDS011;11564;50.920;11.612;2022-09-21T14:31:54;1.20;;;0.77;;
22794;SDS011;11564;50.920;11.612;2022-09-21T14:34:24;2.83;;;1.10;;
22794;SDS011;11564;50.920;11.612;2022-09-21T14:36:56;1.20;;;0.60;;
22794;SDS011;11564;50.920;11.612;2022-09-21T14:39:33;1.57;;;0.70;;
22794;SDS011;11564;50.920;11.612;2022-09-21T14:42:10;5.43;;;0.70;;
22794;SDS011;11564;50.920;11.612;2022-09-21T14:44:41;5.70;;;1.27;;
22794;SDS011;11564;50.920;11.612;2022-09-21T14:50:28;2.60;;;0.90;;
22794;SDS011;11564;50.920;11.612;2022-09-21T15:18:21;3.33;;;1.40;;
22794;SDS011;11564;50.920;11.612;2022-09-21T15:20:57;11.43;;;1.40;;
22794;SDS011;11564;50.920;11.612;2022-09-21T15:23:32;3.33;;;0.80;;
22794;SDS011;11564;50.920;11.612;2022-09-21T15:26:09;10.07;;;1.60;;
22794;SDS011;11564;50.920;11.612;2022-09-21T15:28:41;2.03;;;1.07;;
22794;SDS011;11564;50.920;11.612;2022-09-21T15:31:12;3.17;;;1.23;;
22794;SDS011;11564;50.920;11.612;2022-09-21T15:33:39;3.77;;;0.70;;
22794;SDS011;11564;50.920;11.612;2022-09-21T15:36:06;2.00;;;1.20;;
22794;SDS011;11564;50.920;11.612;2022-09-21T15:38:34;3.20;;;1.00;;
22794;SDS011;11564;50.920;11.612;2022-09-21T15:41:02;1.90;;;1.00;;
22794;SDS011;11564;50.920;11.612;2022-09-21T15:43:30;4.83;;;1.33;;
22794;SDS011;11564;50.920;11.612;2022-09-21T15:46:00;3.07;;;1.17;;
22794;SDS011;11564;50.920;11.612;2022-09-21T15:48:28;3.80;;;1.37;;
22794;SDS011;11564;50.920;11.612;2022-09-21T15:51:19;7.10;;;1.47;;
22794;SDS011;11564;50.920;11.612;2022-09-21T15:54:04;6.13;;;1.93;;
22794;SDS011;11564;50.920;11.612;2022-09-21T15:56:38;11.13;;;2.20;;
22794;SDS011;11564;50.920;11.612;2022-09-21T15:59:10;5.20;;;1.90;;
22794;SDS011;11564;50.920;11.612;2022-09-21T16:01:44;5.97;;;1.23;;
22794;SDS011;11564;50.920;11.612;2022-09-21T16:04:14;6.00;;;1.10;;
22794;SDS011;11564;50.920;11.612;2022-09-21T16:06:44;2.83;;;0.90;;
22794;SDS011;11564;50.920;11.612;2022-09-21T16:09:53;4.50;;;1.30;;
22794;SDS011;11564;50.920;11.612;2022-09-21T16:12:22;2.20;;;1.00;;
22794;SDS011;11564;50.920;11.612;2022-09-21T16:14:52;2.00;;;1.40;;
22794;SDS011;11564;50.920;11.612;2022-09-21T16:17:19;1.67;;;0.77;;
22794;SDS011;11564;50.920;11.612;2022-09-21T16:24:52;1.40;;;1.10;;
22794;SDS011;11564;50.920;11.612;2022-09-21T16:27:21;2.50;;;1.70;;
22794;SDS011;11564;50.920;11.612;2022-09-21T16:29:49;5.33;;;1.47;;
22794;SDS011;11564;50.920;11.612;2022-09-21T16:34:42;5.40;;;2.40;;
22794;SDS011;11564;50.920;11.612;2022-09-21T16:37:22;5.80;;;1.20;;
22794;SDS011;11564;50.920;11.612;2022-09-21T16:40:01;6.60;;;1.07;;
22794;SDS011;11564;50.920;11.612;2022-09-21T16:42:27;2.07;;;0.87;;
22794;SDS011;11564;50.920;11.612;2022-09-21T16:44:56;2.33;;;0.73;;
22794;SDS011;11564;50.920;11.612;2022-09-21T16:47:24;1.23;;;0.70;;
22794;SDS011;11564;50.920;11.612;2022-09-21T16:49:51;0.70;;;0.70;;
22794;SDS011;11564;50.920;11.612;2022-09-21T16:52:27;0.70;;;0.50;;
22794;SDS011;11564;50.920;11.612;2022-09-21T16:54:53;2.20;;;0.70;;
22794;SDS011;11564;50.920;11.612;2022-09-21T16:57:20;3.83;;;0.90;;
22794;SDS011;11564;50.920;11.612;2022-09-21T16:59:47;1.07;;;0.70;;
22794;SDS011;11564;50.920;11.612;2022-09-21T17:02:14;2.00;;;0.73;;
22794;SDS011;11564;50.920;11.612;2022-09-21T17:04:41;2.03;;;1.20;;
22794;SDS011;11564;50.920;11.612;2022-09-21T17:07:13;1.90;;;0.70;;
22794;SDS011;11564;50.920;11.612;2022-09-21T17:09:41;3.03;;;1.10;;
22794;SDS011;11564;50.920;11.612;2022-09-21T17:12:10;1.67;;;1.00;;
22794;SDS011;11564;50.920;11.612;2022-09-21T17:14:41;2.40;;;1.33;;
22794;SDS011;11564;50.920;11.612;2022-09-21T17:17:18;6.10;;;1.90;;
22794;SDS011;11564;50.920;11.612;2022-09-21T17:19:46;7.37;;;2.87;;
22794;SDS011;11564;50.920;11.612;2022-09-21T17:22:13;3.93;;;2.70;;
22794;SDS011;11564;50.920;11.612;2022-09-21T17:24:43;3.93;;;2.60;;
22794;SDS011;11564;50.920;11.612;2022-09-21T17:27:12;12.70;;;3.87;;
22794;SDS011;11564;50.920;11.612;2022-09-21T17:29:41;7.00;;;3.47;;
22794;SDS011;11564;50.920;11.612;2022-09-21T17:32:12;4.10;;;3.20;;
22794;SDS011;11564;50.920;11.612;2022-09-21T17:34:39;14.10;;;4.80;;
22794;SDS011;11564;50.920;11.612;2022-09-21T17:37:09;8.87;;;3.70;;
22794;SDS011;11564;50.920;11.612;2022-09-21T17:39:34;5.07;;;2.80;;
22794;SDS011;11564;50.920;11.612;2022-09-21T17:42:01;5.00;;;3.63;;
22794;SDS011;11564;50.920;11.612;2022-09-21T17:44:41;10.30;;;5.87;;
22794;SDS011;11564;50.920;11.612;2022-09-21T17:49:53;24.57;;;12.87;;
22794;SDS011;11564;50.920;11.612;2022-09-21T17:52:23;21.77;;;13.53;;
22794;SDS011;11564;50.920;11.612;2022-09-21T17:55:08;12.43;;;9.57;;
22794;SDS011;11564;50.920;11.612;2022-09-21T18:00:32;14.07;;;6.80;;
22794;SDS011;11564;50.920;11.612;2022-09-21T18:03:28;6.23;;;5.40;;
22794;SDS011;11564;50.920;11.612;2022-09-21T18:05:58;6.10;;;4.80;;
22794;SDS011;11564;50.920;11.612;2022-09-21T18:08:28;7.17;;;4.63;;
22794;SDS011;11564;50.920;11.612;2022-09-21T18:11:01;3.53;;;3.17;;
22794;SDS011;11564;50.920;11.612;2022-09-21T18:21:51;4.67;;;2.53;;
22794;SDS011;11564;50.920;11.612;2022-09-21T18:24:25;5.27;;;2.80;;
22794;SDS011;11564;50.920;11.612;2022-09-21T18:26:52;6.90;;;3.43;;
22794;SDS011;11564;50.920;11.612;2022-09-21T18:29:29;11.90;;;5.77;;
22794;SDS011;11564;50.920;11.612;2022-09-21T18:32:16;7.37;;;4.90;;